sensor_id;sensor_type;location;lat;lon;timestamp;pressure;altitude;pressure_sealevel;temperature;humidity
74090;BME280;62448;-26.094;27.994;2022-09-01T00:01:45;85626.16;;;11.78;14.76
74090;BME280;62448;-26.094;27.994;2022-09-01T00:04:09;85624.65;;;12.13;14.41
74090;BME280;62448;-26.094;27.994;2022-09-01T00:06:33;85620.50;;;11.94;14.27
74090;BME280;62448;-26.094;27.994;2022-09-01T00:09:02;85619.66;;;12.59;14.10
74090;BME280;62448;-26.094;27.994;2022-09-01T00:11:26;85616.77;;;13.27;13.84
74090;BME280;62448;-26.094;27.994;2022-09-01T00:13:53;85616.88;;;13.19;13.85
74090;BME280;62448;-26.094;27.994;2022-09-01T00:16:17;85613.03;;;12.83;13.83
74090;BME280;62448;-26.094;27.994;2022-09-01T00:18:41;85610.07;;;12.89;13.77
74090;BME280;62448;-26.094;27.994;2022-09-01T00:21:06;85608.77;;;12.70;14.03
74090;BME280;62448;-26.094;27.994;2022-09-01T00:23:32;85606.60;;;12.66;14.32
74090;BME280;62448;-26.094;27.994;2022-09-01T00:25:57;85605.38;;;11.77;14.40
74090;BME280;62448;-26.094;27.994;2022-09-01T00:28:23;85605.95;;;11.95;14.42
74090;BME280;62448;-26.094;27.994;2022-09-01T00:30:48;85600.95;;;12.31;14.58
74090;BME280;62448;-26.094;27.994;2022-09-01T00:33:13;85601.10;;;12.18;14.65
74090;BME280;62448;-26.094;27.994;2022-09-01T00:35:38;85600.25;;;12.23;14.67
74090;BME280;62448;-26.094;27.994;2022-09-01T00:38:04;85596.32;;;11.78;14.69
74090;BME280;62448;-26.094;27.994;2022-09-01T00:40:29;85592.10;;;12.12;14.77
74090;BME280;62448;-26.094;27.994;2022-09-01T00:42:55;85588.31;;;12.17;14.67
74090;BME280;62448;-26.094;27.994;2022-09-01T00:45:21;85587.40;;;12.26;14.68
74090;BME280;62448;-26.094;27.994;2022-09-01T00:47:45;85584.01;;;11.96;14.76
74090;BME280;62448;-26.094;27.994;2022-09-01T00:50:12;85582.81;;;12.21;14.62
74090;BME280;62448;-26.094;27.994;2022-09-01T00:52:41;85578.46;;;11.89;14.70
74090;BME280;62448;-26.094;27.994;2022-09-01T00:55:09;85577.29;;;11.56;14.86
74090;BME280;62448;-26.094;27.994;2022-09-01T00:57:27;85573.60;;;11.94;14.77
74090;BME280;62448;-26.094;27.994;2022-09-01T00:59:58;85571.44;;;11.68;14.74
74090;BME280;62448;-26.094;27.994;2022-09-01T01:02:36;85572.35;;;12.56;14.81
74090;BME280;62448;-26.094;27.994;2022-09-01T01:05:01;85566.34;;;11.40;14.35
74090;BME280;62448;-26.094;27.994;2022-09-01T01:07:27;85566.21;;;11.98;14.23
74090;BME280;62448;-26.094;27.994;2022-09-01T01:09:51;85562.09;;;12.12;13.99
74090;BME280;62448;-26.094;27.994;2022-09-01T01:12:17;85562.53;;;12.37;13.91
74090;BME280;62448;-26.094;27.994;2022-09-01T01:14:42;85561.67;;;12.27;13.78
74090;BME280;62448;-26.094;27.994;2022-09-01T01:17:07;85556.58;;;12.70;13.67
74090;BME280;62448;-26.094;27.994;2022-09-01T01:19:43;85552.71;;;12.31;14.02
74090;BME280;62448;-26.094;27.994;2022-09-01T01:21:58;85548.21;;;12.08;14.35
74090;BME280;62448;-26.094;27.994;2022-09-01T01:24:25;85543.43;;;12.09;14.50
74090;BME280;62448;-26.094;27.994;2022-09-01T01:26:50;85544.50;;;11.41;14.59
74090;BME280;62448;-26.094;27.994;2022-09-01T01:29:16;85541.96;;;11.56;14.76
74090;BME280;62448;-26.094;27.994;2022-09-01T01:31:41;85540.21;;;11.68;14.68
74090;BME280;62448;-26.094;27.994;2022-09-01T01:34:06;85540.94;;;11.85;14.66
74090;BME280;62448;-26.094;27.994;2022-09-01T01:36:35;85537.39;;;11.49;14.66
74090;BME280;62448;-26.094;27.994;2022-09-01T01:38:59;85534.36;;;11.57;14.67
74090;BME280;62448;-26.094;27.994;2022-09-01T01:41:23;85532.62;;;11.78;14.61
74090;BME280;62448;-26.094;27.994;2022-09-01T01:43:48;85532.70;;;11.40;14.75
74090;BME280;62448;-26.094;27.994;2022-09-01T01:46:14;85532.11;;;11.81;14.63
74090;BME280;62448;-26.094;27.994;2022-09-01T01:48:41;85529.35;;;11.66;14.64
74090;BME280;62448;-26.094;27.994;2022-09-01T01:51:05;85526.39;;;11.60;14.70
74090;BME280;62448;-26.094;27.994;2022-09-01T01:53:30;85528.89;;;11.74;14.70
74090;BME280;62448;-26.094;27.994;2022-09-01T01:55:55;85528.56;;;11.53;14.74
74090;BME280;62448;-26.094;27.994;2022-09-01T01:58:22;85525.76;;;11.73;14.76
74090;BME280;62448;-26.094;27.994;2022-09-01T02:00:48;85527.39;;;11.57;14.68
74090;BME280;62448;-26.094;27.994;2022-09-01T02:03:14;85529.03;;;10.65;14.52
74090;BME280;62448;-26.094;27.994;2022-09-01T02:05:37;85527.40;;;11.69;14.27
74090;BME280;62448;-26.094;27.994;2022-09-01T02:08:06;85525.37;;;12.22;13.99
74090;BME280;62448;-26.094;27.994;2022-09-01T02:10:30;85527.30;;;12.07;13.94
74090;BME280;62448;-26.094;27.994;2022-09-01T02:12:54;85531.71;;;11.85;14.01
74090;BME280;62448;-26.094;27.994;2022-09-01T02:15:19;85532.18;;;11.87;13.96
74090;BME280;62448;-26.094;27.994;2022-09-01T02:17:44;85531.06;;;12.38;13.92
74090;BME280;62448;-26.094;27.994;2022-09-01T02:20:10;85533.48;;;11.80;14.30
74090;BME280;62448;-26.094;27.994;2022-09-01T02:22:35;85536.37;;;11.61;14.38
74090;BME280;62448;-26.094;27.994;2022-09-01T02:25:01;85535.41;;;11.85;14.51
74090;BME280;62448;-26.094;27.994;2022-09-01T02:27:26;85531.81;;;11.44;14.61
74090;BME280;62448;-26.094;27.994;2022-09-01T02:29:51;85526.31;;;11.17;14.71
74090;BME280;62448;-26.094;27.994;2022-09-01T02:32:16;85524.21;;;10.37;14.67
74090;BME280;62448;-26.094;27.994;2022-09-01T02:34:41;85516.96;;;11.25;14.72
74090;BME280;62448;-26.094;27.994;2022-09-01T02:37:07;85515.76;;;11.63;14.57
74090;BME280;62448;-26.094;27.994;2022-09-01T02:39:32;85518.46;;;10.38;14.83
74090;BME280;62448;-26.094;27.994;2022-09-01T02:41:58;85518.74;;;10.72;14.60
74090;BME280;62448;-26.094;27.994;2022-09-01T02:44:23;85523.59;;;11.87;14.43
74090;BME280;62448;-26.094;27.994;2022-09-01T02:46:49;85524.86;;;11.79;14.44
74090;BME280;62448;-26.094;27.994;2022-09-01T02:49:15;85523.34;;;11.84;14.54
74090;BME280;62448;-26.094;27.994;2022-09-01T02:51:39;85522.11;;;11.25;14.62
74090;BME280;62448;-26.094;27.994;2022-09-01T02:54:05;85524.31;;;10.93;14.59
74090;BME280;62448;-26.094;27.994;2022-09-01T02:56:30;85521.95;;;11.45;14.50
74090;BME280;62448;-26.094;27.994;2022-09-01T02:58:56;85520.53;;;10.20;14.71
74090;BME280;62448;-26.094;27.994;2022-09-01T03:01:23;85521.24;;;11.11;14.57
74090;BME280;62448;-26.094;27.994;2022-09-01T03:03:46;85522.92;;;11.10;14.38
74090;BME280;62448;-26.094;27.994;2022-09-01T03:06:11;85521.02;;;11.55;14.16
74090;BME280;62448;-26.094;27.994;2022-09-01T03:08:37;85521.90;;;11.05;13.97
74090;BME280;62448;-26.094;27.994;2022-09-01T03:11:02;85519.99;;;11.71;13.88
74090;BME280;62448;-26.094;27.994;2022-09-01T03:13:28;85517.19;;;11.28;13.68
74090;BME280;62448;-26.094;27.994;2022-09-01T03:15:54;85522.12;;;11.78;13.90
74090;BME280;62448;-26.094;27.994;2022-09-01T03:18:19;85526.92;;;11.35;14.19
74090;BME280;62448;-26.094;27.994;2022-09-01T03:20:45;85532.45;;;11.86;14.31
74090;BME280;62448;-26.094;27.994;2022-09-01T03:23:12;85530.79;;;10.87;14.69
74090;BME280;62448;-26.094;27.994;2022-09-01T03:25:36;85532.60;;;10.97;14.63
74090;BME280;62448;-26.094;27.994;2022-09-01T03:28:01;85535.11;;;11.29;14.65
74090;BME280;62448;-26.094;27.994;2022-09-01T03:30:26;85534.93;;;11.45;14.63
74090;BME280;62448;-26.094;27.994;2022-09-01T03:32:52;85530.97;;;11.01;14.70
74090;BME280;62448;-26.094;27.994;2022-09-01T03:35:17;85535.82;;;11.06;14.72
74090;BME280;62448;-26.094;27.994;2022-09-01T03:37:42;85539.60;;;10.94;14.90
74090;BME280;62448;-26.094;27.994;2022-09-01T03:40:09;85537.36;;;10.85;15.11
74090;BME280;62448;-26.094;27.994;2022-09-01T03:42:34;85539.26;;;10.92;15.26
74090;BME280;62448;-26.094;27.994;2022-09-01T03:44:59;85541.45;;;10.96;15.69
74090;BME280;62448;-26.094;27.994;2022-09-01T03:47:25;85541.49;;;10.74;15.72
74090;BME280;62448;-26.094;27.994;2022-09-01T03:49:50;85546.98;;;10.62;16.06
74090;BME280;62448;-26.094;27.994;2022-09-01T03:52:15;85551.21;;;10.81;15.78
74090;BME280;62448;-26.094;27.994;2022-09-01T03:54:41;85550.87;;;10.53;15.88
74090;BME280;62448;-26.094;27.994;2022-09-01T03:57:06;85552.34;;;10.29;15.94
74090;BME280;62448;-26.094;27.994;2022-09-01T03:59:32;85552.51;;;10.37;15.80
74090;BME280;62448;-26.094;27.994;2022-09-01T04:01:57;85553.32;;;10.53;15.56
74090;BME280;62448;-26.094;27.994;2022-09-01T04:04:23;85553.21;;;11.04;15.41
74090;BME280;62448;-26.094;27.994;2022-09-01T04:06:48;85560.62;;;11.78;14.92
74090;BME280;62448;-26.094;27.994;2022-09-01T04:09:14;85565.37;;;11.85;14.82
74090;BME280;62448;-26.094;27.994;2022-09-01T04:11:40;85566.12;;;11.58;14.65
74090;BME280;62448;-26.094;27.994;2022-09-01T04:14:06;85566.30;;;11.85;14.72
74090;BME280;62448;-26.094;27.994;2022-09-01T04:16:32;85564.38;;;11.07;15.04
74090;BME280;62448;-26.094;27.994;2022-09-01T04:18:57;85570.66;;;11.70;15.12
74090;BME280;62448;-26.094;27.994;2022-09-01T04:21:22;85573.82;;;11.10;15.10
74090;BME280;62448;-26.094;27.994;2022-09-01T04:23:48;85579.44;;;11.26;15.14
74090;BME280;62448;-26.094;27.994;2022-09-01T04:26:14;85582.34;;;10.95;15.19
74090;BME280;62448;-26.094;27.994;2022-09-01T04:28:41;85583.28;;;10.51;15.31
74090;BME280;62448;-26.094;27.994;2022-09-01T04:31:07;85586.75;;;11.16;15.10
74090;BME280;62448;-26.094;27.994;2022-09-01T04:33:30;85588.26;;;10.62;15.13
74090;BME280;62448;-26.094;27.994;2022-09-01T04:35:55;85588.56;;;10.88;15.11
74090;BME280;62448;-26.094;27.994;2022-09-01T04:38:23;85591.97;;;10.91;15.07
74090;BME280;62448;-26.094;27.994;2022-09-01T04:40:46;85591.84;;;10.70;15.11
74090;BME280;62448;-26.094;27.994;2022-09-01T04:43:11;85597.76;;;11.04;15.16
74090;BME280;62448;-26.094;27.994;2022-09-01T04:45:37;85600.61;;;11.14;15.06
74090;BME280;62448;-26.094;27.994;2022-09-01T04:48:03;85595.84;;;10.64;15.11
74090;BME280;62448;-26.094;27.994;2022-09-01T04:50:28;85598.96;;;11.27;15.03
74090;BME280;62448;-26.094;27.994;2022-09-01T04:52:53;85602.98;;;10.43;15.00
74090;BME280;62448;-26.094;27.994;2022-09-01T04:55:19;85603.98;;;10.77;14.94
74090;BME280;62448;-26.094;27.994;2022-09-01T04:57:47;85601.05;;;10.92;14.85
74090;BME280;62448;-26.094;27.994;2022-09-01T05:00:11;85607.60;;;10.85;14.89
74090;BME280;62448;-26.094;27.994;2022-09-01T05:02:35;85612.63;;;10.47;14.84
74090;BME280;62448;-26.094;27.994;2022-09-01T05:05:01;85608.27;;;10.41;14.87
74090;BME280;62448;-26.094;27.994;2022-09-01T05:07:26;85612.95;;;10.65;14.64
74090;BME280;62448;-26.094;27.994;2022-09-01T05:09:52;85616.72;;;11.35;14.40
74090;BME280;62448;-26.094;27.994;2022-09-01T05:12:17;85616.18;;;10.96;14.61
74090;BME280;62448;-26.094;27.994;2022-09-01T05:14:45;85618.09;;;11.31;14.73
74090;BME280;62448;-26.094;27.994;2022-09-01T05:17:10;85620.45;;;10.30;15.39
74090;BME280;62448;-26.094;27.994;2022-09-01T05:19:35;85624.61;;;11.10;15.38
74090;BME280;62448;-26.094;27.994;2022-09-01T05:22:00;85630.32;;;11.21;15.35
74090;BME280;62448;-26.094;27.994;2022-09-01T05:24:27;85630.56;;;10.03;15.71
74090;BME280;62448;-26.094;27.994;2022-09-01T05:26:50;85630.16;;;10.74;15.60
74090;BME280;62448;-26.094;27.994;2022-09-01T05:29:17;85639.27;;;10.91;15.64
74090;BME280;62448;-26.094;27.994;2022-09-01T05:31:44;85635.80;;;10.78;15.65
74090;BME280;62448;-26.094;27.994;2022-09-01T05:34:08;85630.21;;;10.41;15.64
74090;BME280;62448;-26.094;27.994;2022-09-01T05:36:33;85635.84;;;10.83;15.52
74090;BME280;62448;-26.094;27.994;2022-09-01T05:38:59;85639.86;;;10.54;15.48
74090;BME280;62448;-26.094;27.994;2022-09-01T05:41:25;85641.84;;;10.28;15.69
74090;BME280;62448;-26.094;27.994;2022-09-01T05:43:51;85646.61;;;10.14;15.88
74090;BME280;62448;-26.094;27.994;2022-09-01T05:46:18;85649.88;;;10.16;15.84
74090;BME280;62448;-26.094;27.994;2022-09-01T05:48:42;85651.20;;;10.34;15.76
74090;BME280;62448;-26.094;27.994;2022-09-01T05:51:07;85652.09;;;10.09;16.00
74090;BME280;62448;-26.094;27.994;2022-09-01T05:53:32;85655.27;;;10.13;15.93
74090;BME280;62448;-26.094;27.994;2022-09-01T05:55:59;85655.93;;;10.22;15.93
74090;BME280;62448;-26.094;27.994;2022-09-01T05:58:24;85654.56;;;10.50;15.72
74090;BME280;62448;-26.094;27.994;2022-09-01T06:00:49;85655.82;;;9.94;15.70
74090;BME280;62448;-26.094;27.994;2022-09-01T06:03:14;85662.24;;;9.75;15.75
74090;BME280;62448;-26.094;27.994;2022-09-01T06:05:40;85663.71;;;9.60;15.62
74090;BME280;62448;-26.094;27.994;2022-09-01T06:08:07;85667.26;;;10.00;15.32
74090;BME280;62448;-26.094;27.994;2022-09-01T06:10:31;85670.04;;;10.74;15.18
74090;BME280;62448;-26.094;27.994;2022-09-01T06:12:56;85674.35;;;10.88;15.30
74090;BME280;62448;-26.094;27.994;2022-09-01T06:15:22;85675.44;;;10.52;15.54
74090;BME280;62448;-26.094;27.994;2022-09-01T06:17:48;85673.13;;;9.92;15.80
74090;BME280;62448;-26.094;27.994;2022-09-01T06:20:14;85676.23;;;9.77;15.83
74090;BME280;62448;-26.094;27.994;2022-09-01T06:22:39;85673.58;;;10.50;15.49
74090;BME280;62448;-26.094;27.994;2022-09-01T06:25:05;85675.65;;;10.53;15.85
74090;BME280;62448;-26.094;27.994;2022-09-01T06:27:30;85675.34;;;9.97;15.76
74090;BME280;62448;-26.094;27.994;2022-09-01T06:29:55;85677.69;;;10.17;15.95
74090;BME280;62448;-26.094;27.994;2022-09-01T06:32:21;85675.37;;;10.99;15.65
74090;BME280;62448;-26.094;27.994;2022-09-01T06:34:46;85676.97;;;10.32;15.78
74090;BME280;62448;-26.094;27.994;2022-09-01T06:37:12;85677.66;;;10.51;15.66
74090;BME280;62448;-26.094;27.994;2022-09-01T06:39:37;85680.46;;;9.85;15.79
74090;BME280;62448;-26.094;27.994;2022-09-01T06:42:03;85677.79;;;10.03;15.93
74090;BME280;62448;-26.094;27.994;2022-09-01T06:44:28;85677.16;;;9.76;16.03
74090;BME280;62448;-26.094;27.994;2022-09-01T06:46:53;85676.65;;;10.11;16.00
74090;BME280;62448;-26.094;27.994;2022-09-01T06:49:19;85676.31;;;10.21;15.73
74090;BME280;62448;-26.094;27.994;2022-09-01T06:51:44;85676.58;;;10.57;15.46
74090;BME280;62448;-26.094;27.994;2022-09-01T06:54:10;85679.36;;;9.89;15.80
74090;BME280;62448;-26.094;27.994;2022-09-01T06:56:35;85680.49;;;10.94;15.59
74090;BME280;62448;-26.094;27.994;2022-09-01T06:59:01;85681.71;;;9.88;15.79
74090;BME280;62448;-26.094;27.994;2022-09-01T07:01:25;85683.63;;;9.76;15.91
74090;BME280;62448;-26.094;27.994;2022-09-01T07:04:09;85688.07;;;10.85;15.99
74090;BME280;62448;-26.094;27.994;2022-09-01T07:06:34;85687.78;;;9.86;15.75
74090;BME280;62448;-26.094;27.994;2022-09-01T07:09:00;85693.83;;;10.46;15.48
74090;BME280;62448;-26.094;27.994;2022-09-01T07:11:28;85696.20;;;10.81;15.54
74090;BME280;62448;-26.094;27.994;2022-09-01T07:13:54;85696.22;;;10.63;15.71
74090;BME280;62448;-26.094;27.994;2022-09-01T07:16:17;85694.55;;;10.31;15.87
74090;BME280;62448;-26.094;27.994;2022-09-01T07:18:42;85695.19;;;10.02;16.17
74090;BME280;62448;-26.094;27.994;2022-09-01T07:21:07;85696.67;;;10.46;16.03
74090;BME280;62448;-26.094;27.994;2022-09-01T07:23:33;85699.52;;;9.76;16.20
74090;BME280;62448;-26.094;27.994;2022-09-01T07:25:58;85701.86;;;10.10;16.28
74090;BME280;62448;-26.094;27.994;2022-09-01T07:28:23;85700.21;;;8.60;16.05
74090;BME280;62448;-26.094;27.994;2022-09-01T07:30:51;85699.49;;;10.70;15.74
74090;BME280;62448;-26.094;27.994;2022-09-01T07:33:17;85702.49;;;10.52;15.74
74090;BME280;62448;-26.094;27.994;2022-09-01T07:35:41;85702.12;;;10.12;15.77
74090;BME280;62448;-26.094;27.994;2022-09-01T07:38:05;85700.82;;;10.54;15.57
74090;BME280;62448;-26.094;27.994;2022-09-01T07:40:30;85700.26;;;10.25;15.49
74090;BME280;62448;-26.094;27.994;2022-09-01T07:42:56;85701.07;;;10.76;15.63
74090;BME280;62448;-26.094;27.994;2022-09-01T07:45:21;85702.53;;;10.51;15.75
74090;BME280;62448;-26.094;27.994;2022-09-01T07:47:47;85701.63;;;9.95;16.11
74090;BME280;62448;-26.094;27.994;2022-09-01T07:50:13;85698.31;;;9.42;16.23
74090;BME280;62448;-26.094;27.994;2022-09-01T07:52:38;85699.57;;;10.12;15.99
74090;BME280;62448;-26.094;27.994;2022-09-01T07:55:03;85696.84;;;10.17;16.06
74090;BME280;62448;-26.094;27.994;2022-09-01T07:57:28;85693.67;;;10.77;15.99
74090;BME280;62448;-26.094;27.994;2022-09-01T07:59:53;85696.65;;;9.71;16.21
74090;BME280;62448;-26.094;27.994;2022-09-01T08:02:18;85694.47;;;9.64;16.19
74090;BME280;62448;-26.094;27.994;2022-09-01T08:04:44;85694.47;;;9.01;16.22
74090;BME280;62448;-26.094;27.994;2022-09-01T08:07:09;85693.56;;;9.60;15.79
74090;BME280;62448;-26.094;27.994;2022-09-01T08:09:36;85693.58;;;11.04;15.48
74090;BME280;62448;-26.094;27.994;2022-09-01T08:12:00;85694.20;;;10.58;15.92
74090;BME280;62448;-26.094;27.994;2022-09-01T08:14:25;85695.13;;;10.62;16.06
74090;BME280;62448;-26.094;27.994;2022-09-01T08:16:51;85694.27;;;10.73;16.05
74090;BME280;62448;-26.094;27.994;2022-09-01T08:19:16;85689.95;;;10.18;16.06
74090;BME280;62448;-26.094;27.994;2022-09-01T08:21:42;85686.47;;;10.30;16.21
74090;BME280;62448;-26.094;27.994;2022-09-01T08:24:07;85683.27;;;8.38;16.18
74090;BME280;62448;-26.094;27.994;2022-09-01T08:26:32;85679.38;;;10.23;16.22
74090;BME280;62448;-26.094;27.994;2022-09-01T08:28:58;85674.54;;;10.06;16.25
74090;BME280;62448;-26.094;27.994;2022-09-01T08:31:24;85672.76;;;10.19;16.27
74090;BME280;62448;-26.094;27.994;2022-09-01T08:33:50;85671.93;;;10.14;16.38
74090;BME280;62448;-26.094;27.994;2022-09-01T08:36:16;85671.05;;;9.95;16.21
74090;BME280;62448;-26.094;27.994;2022-09-01T08:38:41;85664.70;;;10.03;16.20
74090;BME280;62448;-26.094;27.994;2022-09-01T08:41:16;85659.15;;;10.37;16.28
74090;BME280;62448;-26.094;27.994;2022-09-01T08:43:45;85660.35;;;10.68;15.95
74090;BME280;62448;-26.094;27.994;2022-09-01T08:46:03;85656.24;;;10.45;15.95
74090;BME280;62448;-26.094;27.994;2022-09-01T08:48:26;85654.42;;;10.48;15.95
74090;BME280;62448;-26.094;27.994;2022-09-01T08:50:53;85650.92;;;10.98;15.81
74090;BME280;62448;-26.094;27.994;2022-09-01T08:53:22;85649.19;;;10.62;15.83
74090;BME280;62448;-26.094;27.994;2022-09-01T08:55:43;85647.16;;;10.76;15.72
74090;BME280;62448;-26.094;27.994;2022-09-01T08:58:09;85640.76;;;10.70;15.79
74090;BME280;62448;-26.094;27.994;2022-09-01T09:00:36;85640.63;;;10.27;15.92
74090;BME280;62448;-26.094;27.994;2022-09-01T09:03:08;85638.25;;;10.59;15.85
74090;BME280;62448;-26.094;27.994;2022-09-01T09:05:36;85635.30;;;10.35;15.69
74090;BME280;62448;-26.094;27.994;2022-09-01T09:08:08;85632.04;;;11.16;15.63
74090;BME280;62448;-26.094;27.994;2022-09-01T09:10:16;85625.82;;;10.76;15.68
74090;BME280;62448;-26.094;27.994;2022-09-01T09:12:50;85626.57;;;11.11;15.83
74090;BME280;62448;-26.094;27.994;2022-09-01T09:15:13;85622.27;;;11.14;15.70
74090;BME280;62448;-26.094;27.994;2022-09-01T09:17:34;85616.87;;;11.00;15.83
74090;BME280;62448;-26.094;27.994;2022-09-01T09:19:55;85612.35;;;10.99;15.68
74090;BME280;62448;-26.094;27.994;2022-09-01T09:22:21;85605.58;;;10.58;15.90
74090;BME280;62448;-26.094;27.994;2022-09-01T09:24:50;85604.54;;;11.19;15.69
74090;BME280;62448;-26.094;27.994;2022-09-01T09:27:17;85604.34;;;10.92;15.78
74090;BME280;62448;-26.094;27.994;2022-09-01T09:29:37;85600.19;;;11.05;15.86
74090;BME280;62448;-26.094;27.994;2022-09-01T09:32:06;85593.66;;;10.68;15.92
74090;BME280;62448;-26.094;27.994;2022-09-01T09:34:32;85586.56;;;10.64;15.98
74090;BME280;62448;-26.094;27.994;2022-09-01T09:36:54;85588.11;;;11.26;15.97
74090;BME280;62448;-26.094;27.994;2022-09-01T09:39:20;85581.14;;;10.94;16.00
74090;BME280;62448;-26.094;27.994;2022-09-01T09:42:04;85578.89;;;11.03;16.01
74090;BME280;62448;-26.094;27.994;2022-09-01T09:44:20;85574.57;;;10.87;16.08
74090;BME280;62448;-26.094;27.994;2022-09-01T09:46:40;85570.14;;;11.31;16.02
74090;BME280;62448;-26.094;27.994;2022-09-01T09:49:12;85569.14;;;11.25;16.02
74090;BME280;62448;-26.094;27.994;2022-09-01T09:51:27;85566.52;;;11.48;15.93
74090;BME280;62448;-26.094;27.994;2022-09-01T09:53:52;85563.07;;;11.30;15.60
74090;BME280;62448;-26.094;27.994;2022-09-01T09:56:20;85562.82;;;10.97;15.93
74090;BME280;62448;-26.094;27.994;2022-09-01T09:58:46;85559.03;;;10.93;15.91
74090;BME280;62448;-26.094;27.994;2022-09-01T10:01:11;85556.78;;;11.27;15.51
74090;BME280;62448;-26.094;27.994;2022-09-01T10:03:37;85554.29;;;11.16;15.51
74090;BME280;62448;-26.094;27.994;2022-09-01T10:06:00;85547.94;;;10.98;15.25
74090;BME280;62448;-26.094;27.994;2022-09-01T10:08:38;85544.16;;;11.64;14.94
74090;BME280;62448;-26.094;27.994;2022-09-01T10:10:52;85539.78;;;11.59;14.64
74090;BME280;62448;-26.094;27.994;2022-09-01T10:13:19;85538.11;;;11.66;14.56
74090;BME280;62448;-26.094;27.994;2022-09-01T10:15:48;85531.00;;;11.72;14.41
74090;BME280;62448;-26.094;27.994;2022-09-01T10:18:13;85522.70;;;11.86;14.29
74090;BME280;62448;-26.094;27.994;2022-09-01T10:20:37;85518.99;;;11.85;14.31
74090;BME280;62448;-26.094;27.994;2022-09-01T10:23:01;85514.17;;;12.19;14.26
74090;BME280;62448;-26.094;27.994;2022-09-01T10:25:27;85508.48;;;12.02;14.35
74090;BME280;62448;-26.094;27.994;2022-09-01T10:27:53;85500.82;;;12.09;14.31
74090;BME280;62448;-26.094;27.994;2022-09-01T10:30:18;85498.33;;;12.44;14.40
74090;BME280;62448;-26.094;27.994;2022-09-01T10:32:43;85491.04;;;12.30;14.34
74090;BME280;62448;-26.094;27.994;2022-09-01T10:35:11;85488.62;;;11.21;14.37
74090;BME280;62448;-26.094;27.994;2022-09-01T10:37:33;85486.36;;;12.07;14.35
74090;BME280;62448;-26.094;27.994;2022-09-01T10:41:03;85481.07;;;12.77;14.23
74090;BME280;62448;-26.094;27.994;2022-09-01T10:42:26;85475.79;;;11.90;14.40
74090;BME280;62448;-26.094;27.994;2022-09-01T10:44:56;85472.30;;;12.38;14.37
74090;BME280;62448;-26.094;27.994;2022-09-01T10:47:25;85468.24;;;12.72;14.37
74090;BME280;62448;-26.094;27.994;2022-09-01T10:50:21;85456.65;;;13.03;14.33
74090;BME280;62448;-26.094;27.994;2022-09-01T10:53:04;85455.38;;;12.84;14.31
74090;BME280;62448;-26.094;27.994;2022-09-01T10:54:57;85451.13;;;13.02;14.29
74090;BME280;62448;-26.094;27.994;2022-09-01T10:57:31;85443.56;;;12.18;14.30
74090;BME280;62448;-26.094;27.994;2022-09-01T10:59:46;85446.22;;;12.50;14.37
74090;BME280;62448;-26.094;27.994;2022-09-01T11:02:14;85441.26;;;12.91;14.26
74090;BME280;62448;-26.094;27.994;2022-09-01T11:05:13;85439.48;;;12.92;14.44
74090;BME280;62448;-26.094;27.994;2022-09-01T11:07:04;85432.39;;;12.37;14.45
74090;BME280;62448;-26.094;27.994;2022-09-01T11:09:33;85432.11;;;12.81;14.38
74090;BME280;62448;-26.094;27.994;2022-09-01T11:12:09;85432.36;;;13.02;14.40
74090;BME280;62448;-26.094;27.994;2022-09-01T11:14:22;85424.31;;;13.15;14.25
74090;BME280;62448;-26.094;27.994;2022-09-01T11:17:11;85422.85;;;12.49;14.33
74090;BME280;62448;-26.094;27.994;2022-09-01T11:19:45;85418.18;;;13.13;14.27
74090;BME280;62448;-26.094;27.994;2022-09-01T11:21:37;85413.81;;;13.07;13.99
74090;BME280;62448;-26.094;27.994;2022-09-01T11:27:04;85402.97;;;12.86;14.15
74090;BME280;62448;-26.094;27.994;2022-09-01T11:28:43;85397.62;;;11.85;14.20
74090;BME280;62448;-26.094;27.994;2022-09-01T11:31:34;85398.88;;;13.14;14.10
74090;BME280;62448;-26.094;27.994;2022-09-01T11:34:09;85392.27;;;12.78;14.10
74090;BME280;62448;-26.094;27.994;2022-09-01T11:36:27;85388.89;;;13.00;14.10
74090;BME280;62448;-26.094;27.994;2022-09-01T11:38:49;85389.28;;;12.42;14.14
74090;BME280;62448;-26.094;27.994;2022-09-01T11:41:21;85384.78;;;13.17;14.04
74090;BME280;62448;-26.094;27.994;2022-09-01T11:43:37;85378.89;;;13.04;14.01
74090;BME280;62448;-26.094;27.994;2022-09-01T11:46:11;85378.19;;;13.04;13.99
74090;BME280;62448;-26.094;27.994;2022-09-01T11:48:28;85376.08;;;13.07;13.97
74090;BME280;62448;-26.094;27.994;2022-09-01T11:50:58;85370.69;;;13.28;13.96
74090;BME280;62448;-26.094;27.994;2022-09-01T11:53:22;85371.47;;;12.97;14.03
74090;BME280;62448;-26.094;27.994;2022-09-01T11:55:48;85367.38;;;13.48;13.94
74090;BME280;62448;-26.094;27.994;2022-09-01T11:58:13;85366.05;;;12.99;13.99
74090;BME280;62448;-26.094;27.994;2022-09-01T12:00:38;85367.00;;;13.09;14.05
74090;BME280;62448;-26.094;27.994;2022-09-01T12:03:03;85363.68;;;13.11;14.17
74090;BME280;62448;-26.094;27.994;2022-09-01T12:05:31;85364.73;;;11.51;14.40
74090;BME280;62448;-26.094;27.994;2022-09-01T12:07:53;85360.51;;;13.48;14.07
74090;BME280;62448;-26.094;27.994;2022-09-01T12:10:23;85357.79;;;13.67;14.11
74090;BME280;62448;-26.094;27.994;2022-09-01T12:12:45;85356.00;;;13.48;14.16
74090;BME280;62448;-26.094;27.994;2022-09-01T12:15:18;85353.41;;;13.63;14.05
74090;BME280;62448;-26.094;27.994;2022-09-01T12:17:36;85352.34;;;13.57;14.10
74090;BME280;62448;-26.094;27.994;2022-09-01T12:20:36;85348.11;;;13.62;13.93
74090;BME280;62448;-26.094;27.994;2022-09-01T12:22:28;85344.17;;;13.00;13.93
74090;BME280;62448;-26.094;27.994;2022-09-01T12:24:54;85343.66;;;13.52;13.99
74090;BME280;62448;-26.094;27.994;2022-09-01T12:27:19;85341.40;;;13.38;13.89
74090;BME280;62448;-26.094;27.994;2022-09-01T12:29:44;85334.48;;;13.81;13.80
74090;BME280;62448;-26.094;27.994;2022-09-01T12:32:10;85334.91;;;13.75;13.84
74090;BME280;62448;-26.094;27.994;2022-09-01T12:34:43;85332.26;;;13.85;13.83